Centenary, Louisiana
Current Conditions -  °F | °C
As of 11:53 AM on Thursday 27 Nov 2014 (Local Time) from KDTN Reporting Station
Clear Clear  
Wind Chill: 52°   Ceiling: Unl
Heat Index: 52°   Visibility: 10mi
Dew Point: 25°   Wind: 5mph
Humidity: 35%   Direction: NA
Pressure: 30.51"   Gusts: NA
Location:  32.4835°N, 93.7335°W
Report Text: KDTN 271753Z VRB04KT 10SM CLR 11/M04 A3051 RMK AO2 SLP332 T01111039 10111 20039 58008
Loading
Personal Weather Stations






























Interactive Weather Map New forecast layout! Learn more

10-Day Weather Forecast

Advertisements
Track Severe Weather on mobile